sensor_id;sensor_type;location;lat;lon;timestamp;P1;durP1;ratioP1;P2;durP2;ratioP2
22883;SDS011;13386;24.786;110.488;2023-07-29T00:01:16;10.77;;;5.55;;
22883;SDS011;13386;24.786;110.488;2023-07-29T00:03:47;22.83;;;5.90;;
22883;SDS011;13386;24.786;110.488;2023-07-29T00:06:17;17.35;;;6.10;;
22883;SDS011;13386;24.786;110.488;2023-07-29T00:08:49;14.20;;;5.70;;
22883;SDS011;13386;24.786;110.488;2023-07-29T00:11:19;18.02;;;6.55;;
22883;SDS011;13386;24.786;110.488;2023-07-29T00:13:49;17.92;;;5.72;;
22883;SDS011;13386;24.786;110.488;2023-07-29T00:16:20;17.08;;;6.13;;
22883;SDS011;13386;24.786;110.488;2023-07-29T00:18:50;15.02;;;5.78;;
22883;SDS011;13386;24.786;110.488;2023-07-29T00:21:20;20.70;;;6.00;;
22883;SDS011;13386;24.786;110.488;2023-07-29T00:23:52;13.07;;;5.50;;
22883;SDS011;13386;24.786;110.488;2023-07-29T00:26:24;15.73;;;6.18;;
22883;SDS011;13386;24.786;110.488;2023-07-29T00:28:58;19.17;;;6.20;;
22883;SDS011;13386;24.786;110.488;2023-07-29T00:31:28;17.80;;;6.93;;
22883;SDS011;13386;24.786;110.488;2023-07-29T00:33:58;18.40;;;6.50;;
22883;SDS011;13386;24.786;110.488;2023-07-29T00:36:28;20.17;;;7.43;;
22883;SDS011;13386;24.786;110.488;2023-07-29T00:39:00;18.15;;;6.45;;
22883;SDS011;13386;24.786;110.488;2023-07-29T00:41:31;18.48;;;7.15;;
22883;SDS011;13386;24.786;110.488;2023-07-29T00:44:02;19.30;;;7.20;;
22883;SDS011;13386;24.786;110.488;2023-07-29T00:46:33;18.05;;;7.20;;
22883;SDS011;13386;24.786;110.488;2023-07-29T00:49:04;22.60;;;7.03;;
22883;SDS011;13386;24.786;110.488;2023-07-29T00:51:34;20.42;;;7.43;;
22883;SDS011;13386;24.786;110.488;2023-07-29T00:54:06;16.92;;;7.53;;
22883;SDS011;13386;24.786;110.488;2023-07-29T00:56:36;18.60;;;7.53;;
22883;SDS011;13386;24.786;110.488;2023-07-29T00:59:06;21.02;;;7.32;;
22883;SDS011;13386;24.786;110.488;2023-07-29T01:01:37;21.08;;;7.07;;
22883;SDS011;13386;24.786;110.488;2023-07-29T01:04:07;19.35;;;8.00;;
22883;SDS011;13386;24.786;110.488;2023-07-29T01:06:40;17.30;;;7.38;;
22883;SDS011;13386;24.786;110.488;2023-07-29T01:09:14;16.50;;;7.88;;
22883;SDS011;13386;24.786;110.488;2023-07-29T01:11:48;15.85;;;7.75;;
22883;SDS011;13386;24.786;110.488;2023-07-29T01:14:26;15.40;;;7.45;;
22883;SDS011;13386;24.786;110.488;2023-07-29T01:17:00;16.92;;;7.63;;
22883;SDS011;13386;24.786;110.488;2023-07-29T01:19:40;18.17;;;8.02;;
22883;SDS011;13386;24.786;110.488;2023-07-29T01:22:12;17.30;;;7.80;;
22883;SDS011;13386;24.786;110.488;2023-07-29T01:24:46;17.38;;;7.60;;
22883;SDS011;13386;24.786;110.488;2023-07-29T01:27:18;14.83;;;7.60;;
22883;SDS011;13386;24.786;110.488;2023-07-29T01:29:50;14.02;;;8.20;;
22883;SDS011;13386;24.786;110.488;2023-07-29T01:32:22;22.10;;;7.32;;
22883;SDS011;13386;24.786;110.488;2023-07-29T01:34:56;17.55;;;7.72;;
22883;SDS011;13386;24.786;110.488;2023-07-29T01:40:01;17.73;;;8.20;;
22883;SDS011;13386;24.786;110.488;2023-07-29T01:42:33;14.23;;;7.40;;
22883;SDS011;13386;24.786;110.488;2023-07-29T01:45:05;19.10;;;7.53;;
22883;SDS011;13386;24.786;110.488;2023-07-29T01:47:36;18.50;;;8.00;;
22883;SDS011;13386;24.786;110.488;2023-07-29T01:50:07;15.77;;;8.00;;
22883;SDS011;13386;24.786;110.488;2023-07-29T01:52:38;17.58;;;7.82;;
22883;SDS011;13386;24.786;110.488;2023-07-29T01:55:11;19.40;;;8.25;;
22883;SDS011;13386;24.786;110.488;2023-07-29T01:57:41;20.65;;;8.85;;
22883;SDS011;13386;24.786;110.488;2023-07-29T02:00:14;17.38;;;8.07;;
22883;SDS011;13386;24.786;110.488;2023-07-29T02:02:45;21.95;;;8.50;;
22883;SDS011;13386;24.786;110.488;2023-07-29T02:05:16;16.40;;;8.50;;
22883;SDS011;13386;24.786;110.488;2023-07-29T02:07:46;20.00;;;8.15;;
22883;SDS011;13386;24.786;110.488;2023-07-29T02:10:18;25.65;;;9.02;;
22883;SDS011;13386;24.786;110.488;2023-07-29T02:12:48;34.67;;;17.20;;
22883;SDS011;13386;24.786;110.488;2023-07-29T02:15:19;16.15;;;8.50;;
22883;SDS011;13386;24.786;110.488;2023-07-29T02:17:51;16.42;;;8.07;;
22883;SDS011;13386;24.786;110.488;2023-07-29T02:20:21;14.10;;;7.70;;
22883;SDS011;13386;24.786;110.488;2023-07-29T02:22:52;18.88;;;8.57;;
22883;SDS011;13386;24.786;110.488;2023-07-29T02:25:25;14.68;;;7.53;;
22883;SDS011;13386;24.786;110.488;2023-07-29T02:27:58;17.92;;;7.05;;
22883;SDS011;13386;24.786;110.488;2023-07-29T02:30:30;14.75;;;7.35;;
22883;SDS011;13386;24.786;110.488;2023-07-29T02:33:04;18.92;;;8.57;;
22883;SDS011;13386;24.786;110.488;2023-07-29T02:35:36;19.15;;;7.63;;
22883;SDS011;13386;24.786;110.488;2023-07-29T02:38:07;23.95;;;8.55;;
22883;SDS011;13386;24.786;110.488;2023-07-29T02:40:39;14.68;;;7.32;;
22883;SDS011;13386;24.786;110.488;2023-07-29T02:43:09;17.63;;;6.90;;
22883;SDS011;13386;24.786;110.488;2023-07-29T02:45:42;12.63;;;5.93;;
22883;SDS011;13386;24.786;110.488;2023-07-29T02:48:12;15.60;;;6.68;;
22883;SDS011;13386;24.786;110.488;2023-07-29T02:50:43;14.00;;;7.10;;
22883;SDS011;13386;24.786;110.488;2023-07-29T02:53:13;19.25;;;6.57;;
22883;SDS011;13386;24.786;110.488;2023-07-29T02:55:48;15.55;;;6.95;;
22883;SDS011;13386;24.786;110.488;2023-07-29T02:58:20;14.63;;;6.22;;
22883;SDS011;13386;24.786;110.488;2023-07-29T03:00:52;13.63;;;6.78;;
22883;SDS011;13386;24.786;110.488;2023-07-29T03:03:22;13.27;;;6.90;;
22883;SDS011;13386;24.786;110.488;2023-07-29T03:05:57;11.48;;;6.15;;
22883;SDS011;13386;24.786;110.488;2023-07-29T03:08:28;14.55;;;6.07;;
22883;SDS011;13386;24.786;110.488;2023-07-29T03:11:06;16.35;;;6.78;;
22883;SDS011;13386;24.786;110.488;2023-07-29T03:13:38;16.30;;;6.05;;
22883;SDS011;13386;24.786;110.488;2023-07-29T03:16:10;10.88;;;5.63;;
22883;SDS011;13386;24.786;110.488;2023-07-29T03:18:51;13.95;;;6.15;;
22883;SDS011;13386;24.786;110.488;2023-07-29T03:21:21;10.02;;;5.32;;
22883;SDS011;13386;24.786;110.488;2023-07-29T03:23:52;13.90;;;5.88;;
22883;SDS011;13386;24.786;110.488;2023-07-29T03:26:25;12.95;;;5.38;;
22883;SDS011;13386;24.786;110.488;2023-07-29T03:28:57;15.23;;;6.00;;
22883;SDS011;13386;24.786;110.488;2023-07-29T03:31:28;12.40;;;5.95;;
22883;SDS011;13386;24.786;110.488;2023-07-29T03:34:00;12.10;;;5.88;;
22883;SDS011;13386;24.786;110.488;2023-07-29T03:36:31;9.95;;;4.65;;
22883;SDS011;13386;24.786;110.488;2023-07-29T03:39:06;11.07;;;5.30;;
22883;SDS011;13386;24.786;110.488;2023-07-29T03:41:40;9.95;;;5.07;;
22883;SDS011;13386;24.786;110.488;2023-07-29T03:44:13;13.63;;;5.28;;
22883;SDS011;13386;24.786;110.488;2023-07-29T03:46:44;9.05;;;4.80;;
22883;SDS011;13386;24.786;110.488;2023-07-29T03:49:16;9.95;;;4.28;;
22883;SDS011;13386;24.786;110.488;2023-07-29T03:51:59;12.00;;;4.85;;
22883;SDS011;13386;24.786;110.488;2023-07-29T03:54:30;10.13;;;4.78;;
22883;SDS011;13386;24.786;110.488;2023-07-29T03:57:06;10.35;;;4.90;;
22883;SDS011;13386;24.786;110.488;2023-07-29T03:59:37;10.07;;;4.55;;
22883;SDS011;13386;24.786;110.488;2023-07-29T04:02:11;8.55;;;4.53;;
22883;SDS011;13386;24.786;110.488;2023-07-29T04:04:43;9.77;;;4.80;;
22883;SDS011;13386;24.786;110.488;2023-07-29T04:07:15;9.80;;;4.65;;
22883;SDS011;13386;24.786;110.488;2023-07-29T04:09:47;10.90;;;4.65;;
22883;SDS011;13386;24.786;110.488;2023-07-29T04:12:19;8.80;;;4.47;;
22883;SDS011;13386;24.786;110.488;2023-07-29T04:14:49;8.43;;;3.92;;
22883;SDS011;13386;24.786;110.488;2023-07-29T04:17:22;13.00;;;4.00;;
22883;SDS011;13386;24.786;110.488;2023-07-29T04:19:54;10.05;;;4.03;;
22883;SDS011;13386;24.786;110.488;2023-07-29T04:22:30;8.60;;;3.55;;
22883;SDS011;13386;24.786;110.488;2023-07-29T04:25:00;9.73;;;4.57;;
22883;SDS011;13386;24.786;110.488;2023-07-29T04:27:33;9.15;;;3.50;;
22883;SDS011;13386;24.786;110.488;2023-07-29T04:30:03;11.23;;;4.00;;
22883;SDS011;13386;24.786;110.488;2023-07-29T04:32:35;11.57;;;4.00;;
22883;SDS011;13386;24.786;110.488;2023-07-29T04:35:08;10.95;;;3.92;;
22883;SDS011;13386;24.786;110.488;2023-07-29T04:37:41;15.50;;;4.40;;
22883;SDS011;13386;24.786;110.488;2023-07-29T04:40:13;10.52;;;3.80;;
22883;SDS011;13386;24.786;110.488;2023-07-29T04:42:48;9.20;;;4.10;;
22883;SDS011;13386;24.786;110.488;2023-07-29T04:45:18;6.78;;;3.78;;
22883;SDS011;13386;24.786;110.488;2023-07-29T04:47:50;10.32;;;4.53;;
22883;SDS011;13386;24.786;110.488;2023-07-29T04:50:22;8.38;;;3.80;;
22883;SDS011;13386;24.786;110.488;2023-07-29T04:52:54;8.45;;;3.67;;
22883;SDS011;13386;24.786;110.488;2023-07-29T04:55:26;8.93;;;4.00;;
22883;SDS011;13386;24.786;110.488;2023-07-29T04:58:02;9.63;;;3.70;;
22883;SDS011;13386;24.786;110.488;2023-07-29T05:00:33;7.85;;;3.90;;
22883;SDS011;13386;24.786;110.488;2023-07-29T05:03:04;8.10;;;3.65;;
22883;SDS011;13386;24.786;110.488;2023-07-29T05:05:35;6.05;;;3.40;;
22883;SDS011;13386;24.786;110.488;2023-07-29T05:08:13;6.28;;;2.95;;
22883;SDS011;13386;24.786;110.488;2023-07-29T05:10:43;7.47;;;3.10;;
22883;SDS011;13386;24.786;110.488;2023-07-29T05:13:22;10.45;;;3.60;;
22883;SDS011;13386;24.786;110.488;2023-07-29T05:15:53;8.27;;;2.88;;
22883;SDS011;13386;24.786;110.488;2023-07-29T05:18:24;9.02;;;2.95;;
22883;SDS011;13386;24.786;110.488;2023-07-29T05:20:56;12.77;;;3.25;;
22883;SDS011;13386;24.786;110.488;2023-07-29T05:23:26;7.07;;;2.92;;
22883;SDS011;13386;24.786;110.488;2023-07-29T05:26:01;10.63;;;3.00;;
22883;SDS011;13386;24.786;110.488;2023-07-29T05:28:36;11.00;;;2.95;;
22883;SDS011;13386;24.786;110.488;2023-07-29T05:31:08;10.88;;;3.92;;
22883;SDS011;13386;24.786;110.488;2023-07-29T05:33:39;12.43;;;3.30;;
22883;SDS011;13386;24.786;110.488;2023-07-29T05:36:13;19.70;;;5.18;;
22883;SDS011;13386;24.786;110.488;2023-07-29T05:38:43;47.53;;;8.35;;
22883;SDS011;13386;24.786;110.488;2023-07-29T05:41:14;17.15;;;4.22;;
22883;SDS011;13386;24.786;110.488;2023-07-29T05:43:46;12.60;;;3.83;;
22883;SDS011;13386;24.786;110.488;2023-07-29T05:46:16;9.15;;;3.60;;
22883;SDS011;13386;24.786;110.488;2023-07-29T05:48:47;6.78;;;3.17;;
22883;SDS011;13386;24.786;110.488;2023-07-29T05:51:17;7.05;;;2.95;;
22883;SDS011;13386;24.786;110.488;2023-07-29T05:53:50;5.93;;;2.90;;
22883;SDS011;13386;24.786;110.488;2023-07-29T05:56:23;6.93;;;3.17;;
22883;SDS011;13386;24.786;110.488;2023-07-29T05:58:57;10.98;;;3.08;;
22883;SDS011;13386;24.786;110.488;2023-07-29T06:01:27;6.47;;;3.10;;
22883;SDS011;13386;24.786;110.488;2023-07-29T06:03:58;8.48;;;3.30;;
22883;SDS011;13386;24.786;110.488;2023-07-29T06:06:29;8.43;;;3.42;;
22883;SDS011;13386;24.786;110.488;2023-07-29T06:09:00;6.13;;;3.42;;
22883;SDS011;13386;24.786;110.488;2023-07-29T06:11:31;7.93;;;3.70;;
22883;SDS011;13386;24.786;110.488;2023-07-29T06:14:11;6.95;;;3.50;;
22883;SDS011;13386;24.786;110.488;2023-07-29T06:16:42;7.60;;;3.60;;
22883;SDS011;13386;24.786;110.488;2023-07-29T06:19:14;6.18;;;3.33;;
22883;SDS011;13386;24.786;110.488;2023-07-29T06:21:51;7.80;;;3.90;;
22883;SDS011;13386;24.786;110.488;2023-07-29T06:24:28;8.25;;;3.33;;
22883;SDS011;13386;24.786;110.488;2023-07-29T06:27:04;8.98;;;4.07;;
22883;SDS011;13386;24.786;110.488;2023-07-29T06:29:48;8.05;;;4.10;;
22883;SDS011;13386;24.786;110.488;2023-07-29T06:32:18;8.98;;;3.70;;
22883;SDS011;13386;24.786;110.488;2023-07-29T06:34:53;13.73;;;4.15;;
22883;SDS011;13386;24.786;110.488;2023-07-29T06:37:33;11.00;;;4.28;;
22883;SDS011;13386;24.786;110.488;2023-07-29T06:40:06;12.90;;;4.20;;
22883;SDS011;13386;24.786;110.488;2023-07-29T06:42:42;10.48;;;4.93;;
22883;SDS011;13386;24.786;110.488;2023-07-29T06:45:18;12.50;;;4.20;;
22883;SDS011;13386;24.786;110.488;2023-07-29T06:47:51;6.68;;;3.45;;
22883;SDS011;13386;24.786;110.488;2023-07-29T06:50:31;8.82;;;4.03;;
22883;SDS011;13386;24.786;110.488;2023-07-29T06:53:04;9.70;;;4.13;;
22883;SDS011;13386;24.786;110.488;2023-07-29T06:55:37;9.27;;;3.85;;
22883;SDS011;13386;24.786;110.488;2023-07-29T06:58:08;7.45;;;3.72;;
22883;SDS011;13386;24.786;110.488;2023-07-29T07:03:14;7.68;;;3.90;;
22883;SDS011;13386;24.786;110.488;2023-07-29T07:05:45;7.10;;;3.97;;
22883;SDS011;13386;24.786;110.488;2023-07-29T07:08:19;9.35;;;4.20;;
22883;SDS011;13386;24.786;110.488;2023-07-29T07:10:50;7.95;;;3.80;;
22883;SDS011;13386;24.786;110.488;2023-07-29T07:13:21;6.50;;;3.65;;
22883;SDS011;13386;24.786;110.488;2023-07-29T07:15:54;10.63;;;4.00;;
22883;SDS011;13386;24.786;110.488;2023-07-29T07:18:29;7.80;;;4.27;;
22883;SDS011;13386;24.786;110.488;2023-07-29T07:21:00;10.13;;;4.95;;
22883;SDS011;13386;24.786;110.488;2023-07-29T07:23:32;11.57;;;4.90;;
22883;SDS011;13386;24.786;110.488;2023-07-29T07:26:02;8.30;;;4.53;;
22883;SDS011;13386;24.786;110.488;2023-07-29T07:28:34;8.32;;;4.47;;
22883;SDS011;13386;24.786;110.488;2023-07-29T07:31:05;12.02;;;4.60;;
22883;SDS011;13386;24.786;110.488;2023-07-29T07:33:41;8.35;;;4.40;;
22883;SDS011;13386;24.786;110.488;2023-07-29T07:36:15;12.48;;;4.97;;
22883;SDS011;13386;24.786;110.488;2023-07-29T07:38:48;8.13;;;4.55;;
22883;SDS011;13386;24.786;110.488;2023-07-29T07:41:24;9.80;;;4.57;;
22883;SDS011;13386;24.786;110.488;2023-07-29T07:43:57;10.05;;;4.05;;
22883;SDS011;13386;24.786;110.488;2023-07-29T07:46:29;7.82;;;4.28;;
22883;SDS011;13386;24.786;110.488;2023-07-29T07:49:02;8.63;;;4.32;;
22883;SDS011;13386;24.786;110.488;2023-07-29T07:51:58;8.80;;;4.68;;
22883;SDS011;13386;24.786;110.488;2023-07-29T07:54:30;12.70;;;4.50;;
22883;SDS011;13386;24.786;110.488;2023-07-29T07:57:00;10.20;;;3.72;;
22883;SDS011;13386;24.786;110.488;2023-07-29T07:59:33;6.22;;;3.80;;
22883;SDS011;13386;24.786;110.488;2023-07-29T08:02:06;7.85;;;4.03;;
22883;SDS011;13386;24.786;110.488;2023-07-29T08:04:39;10.43;;;4.38;;
22883;SDS011;13386;24.786;110.488;2023-07-29T08:07:11;10.80;;;4.53;;
22883;SDS011;13386;24.786;110.488;2023-07-29T08:09:44;7.43;;;4.13;;
22883;SDS011;13386;24.786;110.488;2023-07-29T08:12:14;10.63;;;4.53;;
22883;SDS011;13386;24.786;110.488;2023-07-29T08:14:46;7.15;;;4.10;;
22883;SDS011;13386;24.786;110.488;2023-07-29T08:17:25;9.73;;;4.63;;
22883;SDS011;13386;24.786;110.488;2023-07-29T08:19:57;11.07;;;5.07;;
22883;SDS011;13386;24.786;110.488;2023-07-29T08:22:28;9.75;;;4.80;;
22883;SDS011;13386;24.786;110.488;2023-07-29T08:25:05;7.35;;;4.80;;
22883;SDS011;13386;24.786;110.488;2023-07-29T08:27:35;11.27;;;4.82;;
22883;SDS011;13386;24.786;110.488;2023-07-29T08:30:06;11.00;;;4.82;;
22883;SDS011;13386;24.786;110.488;2023-07-29T08:32:40;12.23;;;4.88;;
22883;SDS011;13386;24.786;110.488;2023-07-29T08:35:15;9.47;;;4.80;;
22883;SDS011;13386;24.786;110.488;2023-07-29T08:37:53;9.30;;;4.55;;
22883;SDS011;13386;24.786;110.488;2023-07-29T08:40:42;11.43;;;5.03;;
22883;SDS011;13386;24.786;110.488;2023-07-29T08:43:13;8.70;;;4.78;;
22883;SDS011;13386;24.786;110.488;2023-07-29T08:45:45;8.90;;;4.75;;
22883;SDS011;13386;24.786;110.488;2023-07-29T08:48:15;9.05;;;4.60;;
22883;SDS011;13386;24.786;110.488;2023-07-29T08:50:53;10.20;;;4.90;;
22883;SDS011;13386;24.786;110.488;2023-07-29T08:53:26;11.55;;;5.70;;
22883;SDS011;13386;24.786;110.488;2023-07-29T08:56:01;12.95;;;5.07;;
22883;SDS011;13386;24.786;110.488;2023-07-29T08:58:32;8.93;;;4.57;;
22883;SDS011;13386;24.786;110.488;2023-07-29T09:01:03;7.05;;;4.47;;
22883;SDS011;13386;24.786;110.488;2023-07-29T09:03:36;10.02;;;4.97;;
22883;SDS011;13386;24.786;110.488;2023-07-29T09:06:12;10.93;;;4.67;;
22883;SDS011;13386;24.786;110.488;2023-07-29T09:08:44;11.35;;;5.10;;
22883;SDS011;13386;24.786;110.488;2023-07-29T09:11:15;10.73;;;4.80;;
22883;SDS011;13386;24.786;110.488;2023-07-29T09:13:46;10.15;;;5.13;;
22883;SDS011;13386;24.786;110.488;2023-07-29T09:16:18;10.10;;;5.38;;
22883;SDS011;13386;24.786;110.488;2023-07-29T09:18:50;10.57;;;5.18;;
22883;SDS011;13386;24.786;110.488;2023-07-29T09:21:26;12.82;;;5.00;;
22883;SDS011;13386;24.786;110.488;2023-07-29T09:24:01;9.15;;;5.22;;
22883;SDS011;13386;24.786;110.488;2023-07-29T09:26:34;10.57;;;5.05;;
22883;SDS011;13386;24.786;110.488;2023-07-29T09:29:04;9.88;;;5.15;;
22883;SDS011;13386;24.786;110.488;2023-07-29T09:31:35;11.05;;;5.13;;
22883;SDS011;13386;24.786;110.488;2023-07-29T09:34:05;9.70;;;5.05;;
22883;SDS011;13386;24.786;110.488;2023-07-29T09:36:39;11.10;;;5.32;;
22883;SDS011;13386;24.786;110.488;2023-07-29T09:39:12;11.95;;;5.50;;
22883;SDS011;13386;24.786;110.488;2023-07-29T09:41:47;9.13;;;5.20;;
22883;SDS011;13386;24.786;110.488;2023-07-29T09:44:20;13.88;;;5.25;;
22883;SDS011;13386;24.786;110.488;2023-07-29T09:46:55;10.70;;;5.53;;
22883;SDS011;13386;24.786;110.488;2023-07-29T09:49:28;13.52;;;5.43;;
22883;SDS011;13386;24.786;110.488;2023-07-29T09:52:07;16.10;;;6.40;;
22883;SDS011;13386;24.786;110.488;2023-07-29T09:54:39;14.63;;;6.50;;
22883;SDS011;13386;24.786;110.488;2023-07-29T09:57:11;19.63;;;6.75;;
22883;SDS011;13386;24.786;110.488;2023-07-29T09:59:41;17.25;;;6.82;;
22883;SDS011;13386;24.786;110.488;2023-07-29T10:02:13;18.50;;;6.85;;
22883;SDS011;13386;24.786;110.488;2023-07-29T10:04:46;15.30;;;6.82;;
22883;SDS011;13386;24.786;110.488;2023-07-29T10:07:23;16.80;;;7.05;;
22883;SDS011;13386;24.786;110.488;2023-07-29T10:09:55;14.02;;;6.40;;
22883;SDS011;13386;24.786;110.488;2023-07-29T10:12:25;10.10;;;5.70;;
22883;SDS011;13386;24.786;110.488;2023-07-29T10:14:59;14.80;;;5.82;;
22883;SDS011;13386;24.786;110.488;2023-07-29T10:17:30;13.73;;;6.00;;
22883;SDS011;13386;24.786;110.488;2023-07-29T10:20:00;15.27;;;6.45;;
22883;SDS011;13386;24.786;110.488;2023-07-29T10:22:36;13.88;;;6.38;;
22883;SDS011;13386;24.786;110.488;2023-07-29T10:25:07;15.43;;;6.47;;
22883;SDS011;13386;24.786;110.488;2023-07-29T10:27:42;12.23;;;5.97;;
22883;SDS011;13386;24.786;110.488;2023-07-29T10:30:14;11.93;;;6.28;;
22883;SDS011;13386;24.786;110.488;2023-07-29T10:32:47;15.50;;;7.22;;
22883;SDS011;13386;24.786;110.488;2023-07-29T10:35:22;19.80;;;7.50;;
22883;SDS011;13386;24.786;110.488;2023-07-29T10:37:55;15.13;;;7.32;;
22883;SDS011;13386;24.786;110.488;2023-07-29T10:40:26;16.75;;;7.88;;
22883;SDS011;13386;24.786;110.488;2023-07-29T10:42:59;16.65;;;8.43;;
22883;SDS011;13386;24.786;110.488;2023-07-29T10:45:36;21.77;;;9.65;;
22883;SDS011;13386;24.786;110.488;2023-07-29T10:48:08;24.33;;;11.35;;
22883;SDS011;13386;24.786;110.488;2023-07-29T10:50:40;25.67;;;11.27;;
22883;SDS011;13386;24.786;110.488;2023-07-29T10:53:13;25.42;;;11.10;;
22883;SDS011;13386;24.786;110.488;2023-07-29T10:55:47;25.40;;;9.95;;
22883;SDS011;13386;24.786;110.488;2023-07-29T10:58:17;17.52;;;9.50;;
22883;SDS011;13386;24.786;110.488;2023-07-29T11:00:48;19.40;;;9.48;;
22883;SDS011;13386;24.786;110.488;2023-07-29T11:03:19;23.05;;;9.60;;
22883;SDS011;13386;24.786;110.488;2023-07-29T11:05:54;19.80;;;9.75;;
22883;SDS011;13386;24.786;110.488;2023-07-29T11:08:28;25.55;;;10.30;;
22883;SDS011;13386;24.786;110.488;2023-07-29T11:11:04;27.08;;;9.90;;
22883;SDS011;13386;24.786;110.488;2023-07-29T11:13:35;25.08;;;10.18;;
22883;SDS011;13386;24.786;110.488;2023-07-29T11:16:06;21.30;;;9.63;;
22883;SDS011;13386;24.786;110.488;2023-07-29T11:18:41;25.33;;;9.15;;
22883;SDS011;13386;24.786;110.488;2023-07-29T11:21:14;21.02;;;8.90;;
22883;SDS011;13386;24.786;110.488;2023-07-29T11:23:48;22.13;;;8.65;;
22883;SDS011;13386;24.786;110.488;2023-07-29T11:26:21;19.88;;;8.32;;
22883;SDS011;13386;24.786;110.488;2023-07-29T11:28:52;15.52;;;7.25;;
22883;SDS011;13386;24.786;110.488;2023-07-29T11:31:39;15.40;;;7.53;;
22883;SDS011;13386;24.786;110.488;2023-07-29T11:34:13;17.65;;;6.97;;
22883;SDS011;13386;24.786;110.488;2023-07-29T11:36:47;17.45;;;6.82;;
22883;SDS011;13386;24.786;110.488;2023-07-29T11:39:23;19.75;;;7.70;;
22883;SDS011;13386;24.786;110.488;2023-07-29T11:41:57;16.95;;;7.40;;
22883;SDS011;13386;24.786;110.488;2023-07-29T11:44:27;20.63;;;7.75;;
22883;SDS011;13386;24.786;110.488;2023-07-29T11:47:02;19.77;;;7.70;;
22883;SDS011;13386;24.786;110.488;2023-07-29T11:49:34;18.10;;;7.50;;
22883;SDS011;13386;24.786;110.488;2023-07-29T11:52:05;16.90;;;7.60;;
22883;SDS011;13386;24.786;110.488;2023-07-29T11:54:38;21.38;;;7.90;;
22883;SDS011;13386;24.786;110.488;2023-07-29T11:57:10;16.83;;;7.85;;
22883;SDS011;13386;24.786;110.488;2023-07-29T11:59:43;18.48;;;7.25;;
22883;SDS011;13386;24.786;110.488;2023-07-29T12:02:14;16.50;;;8.07;;
22883;SDS011;13386;24.786;110.488;2023-07-29T12:04:47;15.35;;;7.75;;
22883;SDS011;13386;24.786;110.488;2023-07-29T12:07:19;17.08;;;7.47;;
22883;SDS011;13386;24.786;110.488;2023-07-29T12:09:56;19.40;;;8.02;;
22883;SDS011;13386;24.786;110.488;2023-07-29T12:12:38;21.25;;;8.38;;
22883;SDS011;13386;24.786;110.488;2023-07-29T12:15:09;18.70;;;7.97;;
22883;SDS011;13386;24.786;110.488;2023-07-29T12:17:40;18.48;;;8.30;;
22883;SDS011;13386;24.786;110.488;2023-07-29T12:20:16;19.40;;;8.35;;
22883;SDS011;13386;24.786;110.488;2023-07-29T12:22:53;16.27;;;7.93;;
22883;SDS011;13386;24.786;110.488;2023-07-29T12:25:25;19.55;;;8.07;;
22883;SDS011;13386;24.786;110.488;2023-07-29T12:27:56;21.38;;;8.52;;
22883;SDS011;13386;24.786;110.488;2023-07-29T12:30:30;15.57;;;8.17;;
22883;SDS011;13386;24.786;110.488;2023-07-29T12:33:01;20.08;;;8.15;;
22883;SDS011;13386;24.786;110.488;2023-07-29T12:35:36;21.02;;;8.50;;
22883;SDS011;13386;24.786;110.488;2023-07-29T12:38:07;18.88;;;8.38;;
22883;SDS011;13386;24.786;110.488;2023-07-29T12:40:41;20.73;;;8.55;;
22883;SDS011;13386;24.786;110.488;2023-07-29T12:43:12;18.40;;;8.77;;
22883;SDS011;13386;24.786;110.488;2023-07-29T12:45:43;16.77;;;8.43;;
22883;SDS011;13386;24.786;110.488;2023-07-29T12:48:16;19.27;;;8.13;;
22883;SDS011;13386;24.786;110.488;2023-07-29T12:50:46;19.23;;;8.23;;
22883;SDS011;13386;24.786;110.488;2023-07-29T12:53:21;25.90;;;9.60;;
22883;SDS011;13386;24.786;110.488;2023-07-29T12:55:55;21.45;;;9.60;;
22883;SDS011;13386;24.786;110.488;2023-07-29T12:58:25;27.10;;;9.68;;
22883;SDS011;13386;24.786;110.488;2023-07-29T13:00:57;23.33;;;10.07;;
22883;SDS011;13386;24.786;110.488;2023-07-29T13:03:32;21.70;;;9.55;;
22883;SDS011;13386;24.786;110.488;2023-07-29T13:06:03;23.63;;;9.27;;
22883;SDS011;13386;24.786;110.488;2023-07-29T13:08:34;19.42;;;9.38;;
22883;SDS011;13386;24.786;110.488;2023-07-29T13:11:09;23.65;;;9.65;;
22883;SDS011;13386;24.786;110.488;2023-07-29T13:13:39;25.38;;;10.20;;
22883;SDS011;13386;24.786;110.488;2023-07-29T13:16:15;23.40;;;10.38;;
22883;SDS011;13386;24.786;110.488;2023-07-29T13:18:45;23.67;;;10.55;;
22883;SDS011;13386;24.786;110.488;2023-07-29T13:21:16;25.23;;;9.93;;
22883;SDS011;13386;24.786;110.488;2023-07-29T13:23:48;23.38;;;9.48;;
22883;SDS011;13386;24.786;110.488;2023-07-29T13:26:20;22.65;;;9.02;;
22883;SDS011;13386;24.786;110.488;2023-07-29T13:28:51;27.70;;;9.35;;
22883;SDS011;13386;24.786;110.488;2023-07-29T13:31:22;24.05;;;8.80;;
22883;SDS011;13386;24.786;110.488;2023-07-29T13:33:53;20.35;;;9.23;;
22883;SDS011;13386;24.786;110.488;2023-07-29T13:36:23;23.77;;;10.10;;
22883;SDS011;13386;24.786;110.488;2023-07-29T13:38:54;33.42;;;12.27;;
22883;SDS011;13386;24.786;110.488;2023-07-29T13:41:27;30.60;;;13.07;;
22883;SDS011;13386;24.786;110.488;2023-07-29T13:44:00;29.98;;;12.00;;
22883;SDS011;13386;24.786;110.488;2023-07-29T13:46:32;24.80;;;9.93;;
22883;SDS011;13386;24.786;110.488;2023-07-29T13:49:03;20.80;;;9.55;;
22883;SDS011;13386;24.786;110.488;2023-07-29T13:51:37;28.13;;;10.45;;
22883;SDS011;13386;24.786;110.488;2023-07-29T13:54:09;24.00;;;10.43;;
22883;SDS011;13386;24.786;110.488;2023-07-29T13:56:42;21.33;;;8.63;;
22883;SDS011;13386;24.786;110.488;2023-07-29T13:59:14;22.75;;;9.05;;
22883;SDS011;13386;24.786;110.488;2023-07-29T14:01:46;21.08;;;9.00;;
22883;SDS011;13386;24.786;110.488;2023-07-29T14:04:19;24.83;;;9.27;;
22883;SDS011;13386;24.786;110.488;2023-07-29T14:06:49;22.17;;;9.55;;
22883;SDS011;13386;24.786;110.488;2023-07-29T14:09:21;26.40;;;9.77;;
22883;SDS011;13386;24.786;110.488;2023-07-29T14:11:55;21.27;;;9.75;;
22883;SDS011;13386;24.786;110.488;2023-07-29T14:14:29;26.08;;;9.98;;
22883;SDS011;13386;24.786;110.488;2023-07-29T14:17:04;26.75;;;11.65;;
22883;SDS011;13386;24.786;110.488;2023-07-29T14:19:35;30.08;;;11.90;;
22883;SDS011;13386;24.786;110.488;2023-07-29T14:22:09;26.17;;;11.88;;
22883;SDS011;13386;24.786;110.488;2023-07-29T14:24:39;29.58;;;12.20;;
22883;SDS011;13386;24.786;110.488;2023-07-29T14:27:12;24.38;;;11.38;;
22883;SDS011;13386;24.786;110.488;2023-07-29T14:29:46;23.90;;;11.43;;
22883;SDS011;13386;24.786;110.488;2023-07-29T14:32:19;28.27;;;11.05;;
22883;SDS011;13386;24.786;110.488;2023-07-29T14:34:49;25.77;;;10.55;;
22883;SDS011;13386;24.786;110.488;2023-07-29T14:37:25;26.88;;;10.27;;
22883;SDS011;13386;24.786;110.488;2023-07-29T14:42:33;27.05;;;10.63;;
22883;SDS011;13386;24.786;110.488;2023-07-29T14:45:04;26.50;;;10.40;;
22883;SDS011;13386;24.786;110.488;2023-07-29T14:47:38;25.27;;;10.20;;
22883;SDS011;13386;24.786;110.488;2023-07-29T14:50:18;25.38;;;9.95;;